Time;durP1;ratioP1;P1;durP2;ratioP2;P2;SDS_P1;SDS_P2;PMS_P1;PMS_P2;Temp;Humidity;BMP_temperature;BMP_pressure;BME280_temperature;BME280_humidity;BME280_pressure;Samples;Min_cycle;Max_cycle;Signal;HPM_P1;HPM_P2
2021/04/11 00:01:21;;;;;;;3.53;2.00;;;12.20;59.00;;;;;;5104245;28;27347;-61
2021/04/11 00:04:35;;;;;;;4.13;2.20;;;12.10;59.30;;;;;;5104447;27;27332;-61
2021/04/11 00:07:50;;;;;;;3.33;1.88;;;12.10;59.50;;;;;;5104865;28;27324;-61
2021/04/11 00:10:52;;;;;;;3.55;2.00;;;12.00;59.60;;;;;;5103350;28;27382;-61
2021/04/11 00:14:07;;;;;;;4.38;1.67;;;12.00;59.80;;;;;;5100171;28;27506;-61
2021/04/11 00:17:35;;;;;;;2.13;1.83;;;11.90;59.80;;;;;;5104652;28;27399;-61
2021/04/11 00:21:21;;;;;;;1.83;1.50;;;11.90;59.80;;;;;;5103906;28;27316;-61
2021/04/11 00:25:09;;;;;;;4.30;1.88;;;11.80;59.90;;;;;;5100729;28;27326;-62
2021/04/11 00:28:36;;;;;;;2.40;1.65;;;11.70;60.20;;;;;;5104406;28;27434;-61
2021/04/11 00:32:06;;;;;;;3.88;1.45;;;11.70;60.30;;;;;;5104300;28;27575;-62
2021/04/11 00:35:34;;;;;;;2.50;1.70;;;11.60;60.40;;;;;;5103594;28;27408;-61
2021/04/11 00:38:55;;;;;;;2.05;1.50;;;11.60;60.30;;;;;;5103879;28;27443;-61
2021/04/11 00:42:05;;;;;;;2.00;1.70;;;11.50;60.40;;;;;;5101465;28;27410;-61
2021/04/11 00:45:15;;;;;;;3.20;1.95;;;11.50;60.70;;;;;;5104243;28;27399;-61
2021/04/11 00:48:21;;;;;;;2.42;1.63;;;11.50;60.90;;;;;;5086686;28;27341;-62
2021/04/11 00:51:32;;;;;;;1.92;1.67;;;11.40;60.70;;;;;;5103319;28;27549;-61
2021/04/11 00:54:45;;;;;;;5.28;2.03;;;11.40;61.00;;;;;;5103577;28;27515;-61
2021/04/11 00:58:00;;;;;;;2.35;1.58;;;11.40;61.10;;;;;;5102771;28;27580;-61
2021/04/11 01:01:11;;;;;;;3.13;1.90;;;11.30;61.30;;;;;;5100432;28;27454;-61
2021/04/11 01:04:24;;;;;;;3.65;1.58;;;11.30;61.20;;;;;;5101918;28;27347;-61
2021/04/11 01:07:56;;;;;;;2.25;1.60;;;11.20;61.20;;;;;;5099444;28;27333;-61
2021/04/11 01:11:04;;;;;;;2.92;1.95;;;11.20;61.10;;;;;;5101377;28;27738;-62
2021/04/11 01:14:32;;;;;;;3.53;1.30;;;11.20;61.20;;;;;;5101797;27;27608;-61
2021/04/11 01:18:14;;;;;;;4.10;1.70;;;11.10;61.30;;;;;;5100174;28;27877;-62
2021/04/11 01:21:28;;;;;;;1.95;1.35;;;11.10;61.40;;;;;;5100341;28;27331;-61
2021/04/11 01:24:38;;;;;;;4.07;1.38;;;11.10;61.50;;;;;;5087075;28;27668;-61
2021/04/11 01:27:45;;;;;;;2.33;1.45;;;11.10;61.60;;;;;;5099186;28;27481;-61
2021/04/11 01:31:15;;;;;;;3.10;1.63;;;11.10;61.70;;;;;;5102312;28;27488;-61
2021/04/11 01:34:08;;;;;;;1.35;1.25;;;11.10;61.70;;;;;;5100893;28;27454;-65
2021/04/11 01:37:06;;;;;;;1.35;1.25;;;11.10;61.90;;;;;;5070993;28;27335;-61
2021/04/11 01:40:09;;;;;;;5.45;1.30;;;11.00;62.00;;;;;;5085131;28;27378;-62
2021/04/11 01:43:04;;;;;;;2.95;1.63;;;11.00;62.20;;;;;;5085548;28;27340;-61
2021/04/11 01:45:49;;;;;;;3.05;1.60;;;11.00;62.30;;;;;;5098958;28;27379;-64
2021/04/11 01:49:19;;;;;;;1.63;1.38;;;11.00;62.30;;;;;;5098938;28;27382;-61
2021/04/11 01:53:23;;;;;;;1.73;1.30;;;11.00;62.60;;;;;;5099493;28;27344;-61
2021/04/11 01:57:30;;;;;;;1.90;1.40;;;11.00;62.60;;;;;;5102363;28;27845;-61
2021/04/11 02:01:00;;;;;;;2.05;1.27;;;11.00;62.60;;;;;;5099839;28;27378;-61
2021/04/11 02:04:06;;;;;;;3.00;1.58;;;10.90;62.60;;;;;;5102938;28;27413;-61
2021/04/11 02:07:41;;;;;;;3.10;1.88;;;10.90;62.80;;;;;;5101608;28;27465;-62
2021/04/11 02:11:09;;;;;;;5.13;1.20;;;10.90;62.80;;;;;;5101597;28;27891;-65
2021/04/11 02:14:27;;;;;;;2.35;1.50;;;10.90;63.00;;;;;;5102677;28;27529;-61
2021/04/11 02:17:53;;;;;;;2.13;1.20;;;10.90;62.80;;;;;;5102505;28;27418;-61
2021/04/11 02:21:15;;;;;;;4.32;1.05;;;10.90;62.90;;;;;;5101432;28;27447;-61
2021/04/11 02:24:28;;;;;;;2.08;1.33;;;10.90;63.00;;;;;;5086509;28;27856;-62
2021/04/11 02:28:00;;;;;;;3.95;1.27;;;10.90;63.10;;;;;;5101986;28;27462;-62
2021/04/11 02:31:18;;;;;;;2.22;1.45;;;10.90;63.40;;;;;;5104198;28;27350;-61
2021/04/11 02:34:13;;;;;;;1.92;1.08;;;10.90;63.60;;;;;;5102774;28;27320;-65
2021/04/11 02:37:19;;;;;;;1.13;1.00;;;10.90;63.30;;;;;;5074159;28;28008;-61
2021/04/11 02:40:27;;;;;;;5.43;1.40;;;10.90;63.50;;;;;;5102090;28;27442;-61
2021/04/11 02:43:40;;;;;;;3.85;1.60;;;10.90;63.50;;;;;;5105228;28;27532;-61
2021/04/11 02:47:08;;;;;;;2.70;1.42;;;10.90;63.60;;;;;;5106078;28;27022;-61
2021/04/11 02:50:36;;;;;;;1.83;1.25;;;10.90;63.50;;;;;;5105054;28;27594;-61
2021/04/11 02:53:43;;;;;;;1.27;1.10;;;10.90;63.50;;;;;;5087341;28;27366;-61
2021/04/11 02:57:04;;;;;;;3.92;1.20;;;10.90;63.90;;;;;;5102435;28;27323;-61
2021/04/11 03:00:35;;;;;;;2.45;1.58;;;10.90;64.10;;;;;;5102557;28;27452;-61
2021/04/11 03:03:56;;;;;;;3.17;1.33;;;10.90;63.80;;;;;;5102243;28;27492;-62
2021/04/11 03:07:05;;;;;;;2.58;1.35;;;10.90;63.50;;;;;;5105186;28;27460;-61
2021/04/11 03:10:22;;;;;;;4.03;1.38;;;10.90;63.50;;;;;;5087595;28;27403;-62
2021/04/11 03:13:50;;;;;;;1.58;1.30;;;10.90;63.50;;;;;;5100993;28;27490;-61
2021/04/11 03:17:45;;;;;;;1.67;1.25;;;10.90;63.40;;;;;;5101711;28;27333;-61
2021/04/11 03:21:04;;;;;;;2.05;1.10;;;10.90;63.90;;;;;;5102004;28;27325;-61
2021/04/11 03:23:48;;;;;;;1.98;1.23;;;10.90;63.60;;;;;;5101334;28;27469;-65
2021/04/11 03:27:25;;;;;;;1.58;1.33;;;10.90;63.90;;;;;;5088304;28;27384;-62
2021/04/11 03:30:39;;;;;;;1.67;1.27;;;10.90;63.90;;;;;;5105056;28;28085;-61
2021/04/11 03:34:10;;;;;;;1.25;1.15;;;10.80;64.00;;;;;;5103224;28;27474;-61
2021/04/11 03:37:39;;;;;;;2.38;1.40;;;10.90;64.20;;;;;;5102126;27;27388;-61
2021/04/11 03:41:14;;;;;;;1.95;1.23;;;10.80;64.10;;;;;;5101943;28;27313;-61
2021/04/11 03:44:35;;;;;;;1.70;1.20;;;10.80;64.00;;;;;;5101849;28;27351;-61
2021/04/11 03:47:42;;;;;;;1.45;1.35;;;10.80;64.50;;;;;;5101613;28;27351;-61
2021/04/11 03:50:55;;;;;;;2.50;1.58;;;10.80;64.50;;;;;;5103848;27;27433;-61
2021/04/11 03:54:10;;;;;;;1.42;1.27;;;10.80;64.30;;;;;;5102293;28;27449;-61
2021/04/11 03:57:25;;;;;;;2.20;1.35;;;10.80;64.40;;;;;;5088375;28;27339;-60
2021/04/11 04:01:11;;;;;;;1.95;1.65;;;10.80;64.30;;;;;;5102576;28;27421;-61
2021/04/11 04:04:37;;;;;;;2.17;1.55;;;10.80;64.40;;;;;;5103779;27;27423;-62
2021/04/11 04:07:49;;;;;;;1.98;1.20;;;10.80;64.60;;;;;;5100533;28;27501;-61
2021/04/11 04:11:29;;;;;;;1.65;1.27;;;10.80;64.70;;;;;;5103548;27;27590;-61
2021/04/11 04:15:10;;;;;;;1.65;1.33;;;10.80;64.90;;;;;;5100961;28;27413;-61
2021/04/11 04:18:44;;;;;;;2.80;1.70;;;10.70;65.00;;;;;;5100262;28;27315;-61
2021/04/11 04:22:03;;;;;;;2.35;1.30;;;10.70;64.80;;;;;;5100227;28;27384;-61
2021/04/11 04:25:56;;;;;;;1.92;1.60;;;10.70;64.90;;;;;;5103237;28;27401;-61
2021/04/11 04:29:20;;;;;;;2.95;1.50;;;10.70;65.00;;;;;;5101569;28;27470;-62
2021/04/11 04:32:12;;;;;;;2.88;1.65;;;10.70;65.00;;;;;;5086047;28;27278;-61
2021/04/11 04:35:55;;;;;;;5.72;2.00;;;10.70;65.30;;;;;;5100909;28;27405;-61
2021/04/11 04:39:01;;;;;;;2.17;1.70;;;10.70;65.30;;;;;;5100070;28;27418;-61
2021/04/11 04:42:14;;;;;;;1.67;1.50;;;10.70;65.40;;;;;;5104129;28;27338;-62
2021/04/11 04:45:44;;;;;;;4.40;1.83;;;10.70;65.60;;;;;;5099911;28;27489;-61
2021/04/11 04:49:12;;;;;;;2.88;1.90;;;10.70;65.30;;;;;;5100120;28;26958;-61
2021/04/11 04:52:38;;;;;;;1.95;1.73;;;10.70;65.50;;;;;;5085324;28;27946;-61
2021/04/11 04:55:50;;;;;;;6.53;1.77;;;10.70;65.40;;;;;;5102321;28;27712;-61
2021/04/11 04:59:25;;;;;;;1.75;1.55;;;10.70;65.40;;;;;;5087624;28;27620;-61
2021/04/11 05:03:02;;;;;;;2.20;1.50;;;10.70;65.60;;;;;;5102096;28;27362;-60
2021/04/11 05:06:31;;;;;;;1.52;1.42;;;10.70;66.10;;;;;;5103701;28;27386;-61
2021/04/11 05:09:50;;;;;;;1.73;1.42;;;10.70;65.70;;;;;;5100128;28;27611;-61
2021/04/11 05:13:23;;;;;;;3.22;1.65;;;10.70;65.40;;;;;;5063201;28;27377;-62
2021/04/11 05:16:47;;;;;;;2.35;1.77;;;10.70;65.80;;;;;;5058964;28;27399;-61
2021/04/11 05:19:58;;;;;;;2.13;1.67;;;10.70;65.80;;;;;;5032878;28;27425;-61
2021/04/11 05:23:23;;;;;;;2.67;1.80;;;10.70;66.00;;;;;;5058469;28;27475;-61
2021/04/11 05:26:15;;;;;;;2.85;1.67;;;10.70;66.00;;;;;;5063117;28;27427;-61
2021/04/11 05:29:42;;;;;;;4.75;1.65;;;10.70;66.30;;;;;;5044990;28;27403;-61
2021/04/11 05:32:55;;;;;;;3.28;1.65;;;10.70;66.30;;;;;;5062486;28;27368;-61
2021/04/11 05:36:08;;;;;;;1.60;1.30;;;10.70;66.60;;;;;;5059554;28;27319;-61
2021/04/11 05:39:24;;;;;;;2.85;1.48;;;10.80;66.90;;;;;;5061224;28;27495;-61
2021/04/11 05:42:54;;;;;;;5.00;1.83;;;10.80;66.90;;;;;;5062857;28;27327;-61
2021/04/11 05:46:23;;;;;;;3.08;1.50;;;10.80;67.40;;;;;;5058764;28;27917;-61
2021/04/11 05:49:51;;;;;;;2.28;1.30;;;10.80;67.50;;;;;;5061777;28;27396;-60
2021/04/11 05:53:59;;;;;;;2.55;1.75;;;10.90;67.70;;;;;;5059144;28;27339;-61
2021/04/11 05:57:29;;;;;;;1.40;1.30;;;10.90;67.60;;;;;;5062459;28;27455;-61
2021/04/11 06:01:14;;;;;;;2.03;1.80;;;11.00;67.70;;;;;;5060224;28;27424;-61
2021/04/11 06:04:52;;;;;;;2.15;1.75;;;11.00;67.70;;;;;;5065278;28;27332;-61
2021/04/11 06:08:05;;;;;;;2.15;1.60;;;11.10;67.60;;;;;;5064541;28;27563;-60
2021/04/11 06:11:25;;;;;;;2.13;1.85;;;11.10;67.60;;;;;;5071737;28;27337;-61
2021/04/11 06:14:56;;;;;;;2.88;1.90;;;11.20;67.60;;;;;;5106288;28;27944;-60
2021/04/11 06:18:50;;;;;;;5.10;2.03;;;11.20;67.40;;;;;;5103277;28;27378;-61
2021/04/11 06:21:50;;;;;;;2.97;2.35;;;11.30;67.20;;;;;;5104194;28;27177;-60
2021/04/11 06:24:51;;;;;;;3.70;2.15;;;11.40;67.30;;;;;;5106428;28;27427;-61
2021/04/11 06:27:53;;;;;;;4.47;2.80;;;11.50;67.40;;;;;;5101986;28;27330;-61
2021/04/11 06:32:02;;;;;;;3.50;2.10;;;11.50;67.50;;;;;;5102545;28;27528;-61
2021/04/11 06:35:39;;;;;;;3.45;1.95;;;11.60;67.60;;;;;;5106576;28;27399;-61
2021/04/11 06:39:06;;;;;;;3.95;2.60;;;11.80;67.90;;;;;;5105996;28;27431;-61
2021/04/11 06:42:39;;;;;;;2.67;1.70;;;11.90;67.80;;;;;;5105688;28;27476;-60
2021/04/11 06:46:32;;;;;;;3.60;1.73;;;12.00;67.60;;;;;;5103445;28;27348;-60
2021/04/11 06:49:30;;;;;;;3.50;2.03;;;12.20;67.10;;;;;;5104727;28;27406;-61
2021/04/11 06:52:39;;;;;;;5.18;1.95;;;12.40;66.60;;;;;;5105964;28;27463;-60
2021/04/11 06:55:52;;;;;;;1.75;1.40;;;12.80;66.20;;;;;;5104951;28;27469;-60
2021/04/11 06:59:30;;;;;;;2.33;1.88;;;13.10;65.10;;;;;;5105708;28;27443;-61
2021/04/11 07:02:58;;;;;;;3.70;2.38;;;13.40;64.50;;;;;;5105758;28;27393;-61
2021/04/11 07:06:42;;;;;;;5.93;2.83;;;13.80;63.40;;;;;;5102033;28;27324;-60
2021/04/11 07:10:18;;;;;;;4.95;2.50;;;14.20;61.60;;;;;;5105631;28;27340;-61
2021/04/11 07:14:01;;;;;;;6.65;2.25;;;14.50;60.90;;;;;;5103425;27;27437;-60
2021/04/11 07:18:07;;;;;;;5.13;1.90;;;14.90;60.20;;;;;;5105019;28;27475;-61
2021/04/11 07:21:09;;;;;;;4.97;2.53;;;15.30;59.70;;;;;;5105422;28;27400;-61
2021/04/11 07:25:04;;;;;;;4.32;1.88;;;15.60;59.20;;;;;;5101822;28;27465;-60
2021/04/11 07:29:05;;;;;;;2.17;1.55;;;16.00;57.70;;;;;;5101709;28;27450;-63
2021/04/11 07:32:12;;;;;;;5.05;2.00;;;16.40;57.90;;;;;;5105166;28;27532;-61
2021/04/11 07:36:04;;;;;;;8.25;2.03;;;16.60;57.20;;;;;;5101596;28;27473;-61
2021/04/11 07:39:34;;;;;;;4.18;2.08;;;16.80;57.70;;;;;;5105014;28;27915;-61
2021/04/11 07:43:07;;;;;;;3.28;1.73;;;16.50;57.90;;;;;;5101538;28;27457;-60
2021/04/11 07:46:04;;;;;;;4.32;1.60;;;16.30;57.60;;;;;;5105061;28;27472;-61
2021/04/11 07:49:01;;;;;;;2.95;1.77;;;16.40;57.80;;;;;;5104889;28;27312;-63
2021/04/11 07:51:59;;;;;;;3.25;1.60;;;16.60;57.60;;;;;;5105960;28;27918;-61
2021/04/11 07:55:24;;;;;;;4.05;2.00;;;16.90;57.60;;;;;;5105869;28;27482;-61
2021/04/11 07:58:56;;;;;;;2.95;1.73;;;17.10;56.50;;;;;;5105901;28;27431;-60
2021/04/11 08:02:41;;;;;;;2.72;1.60;;;17.00;56.70;;;;;;5105685;28;27480;-61
2021/04/11 08:06:04;;;;;;;3.35;1.90;;;17.10;57.30;;;;;;5105444;28;27856;-61
2021/04/11 08:09:20;;;;;;;2.05;1.50;;;17.00;57.50;;;;;;5105931;28;27371;-61
2021/04/11 08:13:15;;;;;;;4.50;1.67;;;17.00;57.90;;;;;;5104359;28;27421;-61
2021/04/11 08:16:53;;;;;;;5.35;2.05;;;16.80;58.40;;;;;;5105473;28;27381;-61
2021/04/11 08:19:49;;;;;;;2.58;1.90;;;16.60;57.30;;;;;;5105415;28;27462;-60
2021/04/11 08:23:26;;;;;;;3.67;2.75;;;16.40;57.50;;;;;;5105268;28;27431;-61
2021/04/11 08:27:04;;;;;;;4.45;2.00;;;16.20;58.40;;;;;;5101864;28;27391;-61
2021/04/11 08:30:32;;;;;;;2.15;1.80;;;16.00;59.70;;;;;;5105687;28;27335;-61
2021/04/11 08:34:16;;;;;;;3.50;2.05;;;15.80;61.30;;;;;;5104965;28;27352;-61
2021/04/11 08:38:01;;;;;;;2.95;1.65;;;15.70;61.20;;;;;;5105273;28;27405;-61
2021/04/11 08:41:27;;;;;;;2.55;1.95;;;15.50;63.50;;;;;;5105253;28;27386;-60
2021/04/11 08:45:07;;;;;;;2.95;2.00;;;15.40;63.30;;;;;;5101447;28;27384;-61
2021/04/11 08:48:38;;;;;;;2.25;1.55;;;15.30;63.30;;;;;;5104795;28;27942;-61
2021/04/11 08:52:14;;;;;;;2.65;1.80;;;15.30;62.80;;;;;;5104374;28;27534;-61
2021/04/11 08:55:33;;;;;;;2.70;1.48;;;15.20;61.60;;;;;;5104251;27;27495;-61
2021/04/11 08:58:45;;;;;;;2.40;1.60;;;15.20;62.20;;;;;;5104870;28;27627;-61
2021/04/11 09:01:43;;;;;;;3.78;1.70;;;15.20;61.90;;;;;;5105184;28;27922;-61
2021/04/11 09:05:24;;;;;;;2.60;1.60;;;15.20;62.10;;;;;;5104856;28;27489;-61
2021/04/11 09:08:55;;;;;;;2.50;1.85;;;15.30;63.10;;;;;;5104465;28;27540;-61
2021/04/11 09:12:11;;;;;;;3.38;1.75;;;15.40;62.80;;;;;;5102648;28;27394;-61
2021/04/11 09:15:31;;;;;;;1.88;1.75;;;15.60;62.40;;;;;;5103968;28;27316;-61
2021/04/11 09:18:42;;;;;;;3.05;1.80;;;15.70;62.10;;;;;;5103872;27;27526;-60
2021/04/11 09:21:48;;;;;;;2.72;1.58;;;15.90;61.60;;;;;;5100743;28;27310;-61
2021/04/11 09:25:13;;;;;;;5.05;1.70;;;16.10;61.40;;;;;;5103787;28;27344;-63
2021/04/11 09:28:03;;;;;;;2.05;1.38;;;16.30;61.70;;;;;;5102817;28;27348;-62
2021/04/11 09:31:18;;;;;;;1.63;1.20;;;16.50;60.90;;;;;;5104375;28;27480;-61
2021/04/11 09:35:07;;;;;;;2.83;1.30;;;16.60;59.70;;;;;;5104056;28;27646;-63
2021/04/11 09:38:09;;;;;;;4.57;1.30;;;16.80;59.70;;;;;;5100219;28;27438;-61
2021/04/11 09:40:58;;;;;;;7.57;2.97;;;16.80;60.00;;;;;;5104317;28;27445;-60
2021/04/11 09:44:11;;;;;;;3.42;1.80;;;16.90;59.90;;;;;;5101018;28;27428;-61
2021/04/11 09:47:09;;;;;;;3.50;2.03;;;17.00;59.50;;;;;;5104525;28;26973;-61
2021/04/11 09:50:50;;;;;;;2.92;1.40;;;17.00;59.10;;;;;;5100689;28;27371;-61
2021/04/11 09:54:06;;;;;;;1.98;1.30;;;17.50;59.40;;;;;;5100101;28;27403;-63
2021/04/11 09:57:51;;;;;;;4.00;1.70;;;18.00;58.80;;;;;;5102274;28;27375;-62
2021/04/11 10:01:37;;;;;;;2.67;1.40;;;18.90;57.60;;;;;;5100568;28;27340;-58
2021/04/11 10:05:24;;;;;;;1.33;1.10;;;19.60;56.80;;;;;;5102754;28;28300;-61
2021/04/11 10:08:40;;;;;;;2.80;1.33;;;20.10;55.60;;;;;;5104004;28;27881;-61
2021/04/11 10:12:04;;;;;;;4.65;1.20;;;20.30;54.70;;;;;;5102963;28;27439;-61
2021/04/11 10:15:18;;;;;;;2.63;1.35;;;20.20;54.90;;;;;;5104273;28;27331;-61
2021/04/11 10:18:31;;;;;;;4.82;1.63;;;20.10;55.90;;;;;;5103443;28;27392;-61
2021/04/11 10:22:14;;;;;;;1.10;1.00;;;20.00;56.80;;;;;;5103462;28;27634;-61
2021/04/11 10:25:49;;;;;;;3.75;1.10;;;19.90;56.80;;;;;;5103294;28;27344;-61
2021/04/11 10:28:52;;;;;;;4.65;1.30;;;19.80;55.00;;;;;;5102944;28;27422;-61
2021/04/11 10:32:14;;;;;;;3.35;1.23;;;19.70;56.30;;;;;;5103957;28;27395;-61
2021/04/11 10:35:38;;;;;;;5.13;1.40;;;19.80;56.80;;;;;;5101528;28;27422;-61
2021/04/11 10:39:02;;;;;;;2.83;1.52;;;20.00;56.10;;;;;;5103631;28;27418;-61
2021/04/11 10:42:09;;;;;;;2.55;1.10;;;20.10;56.40;;;;;;5103644;28;27324;-58
2021/04/11 10:45:21;;;;;;;3.90;1.35;;;20.00;56.50;;;;;;5103468;28;27328;-59
2021/04/11 10:48:36;;;;;;;4.45;1.88;;;19.90;56.60;;;;;;5105022;28;27332;-58
2021/04/11 10:52:08;;;;;;;1.73;1.20;;;19.70;56.80;;;;;;5106646;28;27413;-60
2021/04/11 10:55:29;;;;;;;2.65;1.33;;;19.60;57.10;;;;;;5106462;28;27462;-61
2021/04/11 10:58:44;;;;;;;2.45;1.23;;;19.60;57.00;;;;;;5106719;28;27416;-61
2021/04/11 11:01:39;;;;;;;1.80;1.15;;;19.60;57.10;;;;;;5102941;28;27489;-61
2021/04/11 11:04:56;;;;;;;2.65;1.15;;;19.50;57.50;;;;;;5106566;28;27473;-61
2021/04/11 11:08:20;;;;;;;1.65;1.17;;;19.50;57.60;;;;;;5106778;28;27486;-61
2021/04/11 11:11:59;;;;;;;2.63;1.13;;;19.40;57.80;;;;;;5103657;28;27450;-62
2021/04/11 11:15:12;;;;;;;1.67;1.10;;;19.30;57.40;;;;;;5106201;28;27478;-61
2021/04/11 11:18:40;;;;;;;1.48;1.30;;;19.20;57.70;;;;;;5106276;28;27435;-62
2021/04/11 11:21:51;;;;;;;1.38;1.05;;;19.10;57.90;;;;;;5106836;28;26928;-61
2021/04/11 11:25:18;;;;;;;3.05;1.58;;;19.00;58.30;;;;;;5103165;28;26852;-61
2021/04/11 11:29:24;;;;;;;1.75;1.10;;;19.00;57.50;;;;;;5102873;28;27529;-61
2021/04/11 11:32:46;;;;;;;1.98;1.30;;;19.10;57.20;;;;;;5104934;28;27377;-60
2021/04/11 11:35:55;;;;;;;4.80;1.38;;;19.30;57.80;;;;;;5106683;28;27399;-60
2021/04/11 11:39:04;;;;;;;4.15;1.55;;;19.80;58.50;;;;;;5106199;28;27400;-61
2021/04/11 11:42:25;;;;;;;2.63;1.50;;;20.20;58.50;;;;;;5106118;28;27442;-63
2021/04/11 11:46:03;;;;;;;6.47;2.92;;;20.50;57.80;;;;;;5105574;28;27304;-61
2021/04/11 11:49:01;;;;;;;2.38;1.38;;;20.80;55.90;;;;;;5105632;28;27471;-61
2021/04/11 11:51:53;;;;;;;2.97;0.95;;;21.10;56.40;;;;;;5106336;28;27465;-60
2021/04/11 11:55:30;;;;;;;2.40;1.65;;;21.40;56.80;;;;;;5105092;28;27348;-61
2021/04/11 11:58:48;;;;;;;4.18;1.30;;;21.60;55.30;;;;;;5105365;28;27466;-61
2021/04/11 12:01:56;;;;;;;2.95;1.15;;;21.80;55.60;;;;;;5105952;28;27375;-61
2021/04/11 12:04:54;;;;;;;1.90;1.17;;;21.90;54.20;;;;;;5106157;28;27384;-60
2021/04/11 12:07:58;;;;;;;2.47;1.08;;;22.00;54.10;;;;;;5105244;28;27409;-62
2021/04/11 12:10:58;;;;;;;2.10;1.33;;;21.90;52.40;;;;;;5105344;28;27385;-64
2021/04/11 12:14:06;;;;;;;1.48;1.17;;;21.80;50.60;;;;;;5105132;28;27432;-61
2021/04/11 12:17:01;;;;;;;2.45;1.20;;;21.70;51.20;;;;;;5087327;28;27325;-62
2021/04/11 12:20:08;;;;;;;1.83;0.90;;;21.70;51.90;;;;;;5104982;28;27483;-61
2021/04/11 12:23:12;;;;;;;2.05;1.30;;;21.70;52.10;;;;;;5104906;28;27371;-61
2021/04/11 12:26:33;;;;;;;1.77;1.25;;;21.60;50.50;;;;;;5105655;28;27438;-61
2021/04/11 12:29:32;;;;;;;1.92;1.10;;;21.40;50.60;;;;;;5105824;28;27332;-62
2021/04/11 12:32:30;;;;;;;1.35;1.25;;;21.20;50.50;;;;;;5104617;28;27394;-62
2021/04/11 12:35:28;;;;;;;1.38;0.90;;;21.00;50.60;;;;;;5102086;28;27580;-61
2021/04/11 12:38:32;;;;;;;2.15;1.23;;;20.80;50.60;;;;;;5102242;28;27395;-62
2021/04/11 12:41:23;;;;;;;1.38;0.95;;;20.70;52.10;;;;;;5104332;28;27430;-61
2021/04/11 12:44:34;;;;;;;1.00;0.93;;;20.60;52.80;;;;;;5105640;28;27317;-61
2021/04/11 12:47:27;;;;;;;1.13;0.85;;;20.50;53.80;;;;;;5105219;28;27386;-61
2021/04/11 12:50:40;;;;;;;2.30;1.05;;;20.50;54.70;;;;;;5105471;28;27470;-61
2021/04/11 12:54:06;;;;;;;3.00;1.00;;;20.60;54.70;;;;;;5104662;28;26978;-61
2021/04/11 12:57:41;;;;;;;1.33;0.80;;;20.60;54.90;;;;;;5104392;28;27407;-61
2021/04/11 13:00:34;;;;;;;1.35;1.00;;;20.50;55.00;;;;;;5103165;28;27472;-63
2021/04/11 13:03:57;;;;;;;1.35;1.08;;;20.50;55.00;;;;;;5105255;28;27454;-61
2021/04/11 13:07:15;;;;;;;2.80;0.90;;;20.40;54.40;;;;;;5104749;28;27635;-61
2021/04/11 13:11:07;;;;;;;0.75;0.70;;;20.40;54.70;;;;;;5103104;28;27360;-61
2021/04/11 13:14:12;;;;;;;1.05;0.60;;;20.50;54.50;;;;;;5104380;28;27380;-61
2021/04/11 13:17:41;;;;;;;1.23;0.75;;;20.40;53.80;;;;;;5104671;28;27485;-61
2021/04/11 13:21:00;;;;;;;2.85;0.80;;;20.40;54.10;;;;;;5102904;28;27447;-61
2021/04/11 13:24:17;;;;;;;1.45;0.82;;;20.30;54.00;;;;;;5102441;28;27505;-61
2021/04/11 13:27:24;;;;;;;0.93;0.80;;;20.30;54.10;;;;;;5102900;28;27451;-61
2021/04/11 13:31:12;;;;;;;1.00;0.70;;;20.30;54.40;;;;;;5101234;28;27612;-61
2021/04/11 13:34:21;;;;;;;2.05;1.00;;;20.50;55.70;;;;;;5102108;28;27503;-61
2021/04/11 13:37:21;;;;;;;1.15;0.88;;;20.70;57.00;;;;;;5102733;28;27425;-60
2021/04/11 13:40:21;;;;;;;3.13;0.93;;;21.00;58.20;;;;;;5102532;28;27465;-61
2021/04/11 13:43:21;;;;;;;2.08;0.82;;;21.20;57.70;;;;;;5085260;28;27370;-62
2021/04/11 13:46:31;;;;;;;1.30;0.90;;;21.30;57.20;;;;;;5099204;28;27352;-61
2021/04/11 13:49:32;;;;;;;1.13;0.70;;;21.30;56.80;;;;;;5102443;28;27442;-61
2021/04/11 13:52:30;;;;;;;1.17;0.80;;;21.30;55.80;;;;;;5102776;28;27523;-61
2021/04/11 13:55:27;;;;;;;2.40;0.95;;;21.30;54.90;;;;;;5099516;28;27504;-61
2021/04/11 13:58:42;;;;;;;3.00;1.00;;;21.20;54.40;;;;;;5103693;28;27398;-61
2021/04/11 14:02:04;;;;;;;1.30;0.80;;;21.30;54.60;;;;;;5103473;28;27844;-61
2021/04/11 14:05:12;;;;;;;1.98;0.80;;;21.30;54.40;;;;;;5103885;28;27358;-61
2021/04/11 14:08:23;;;;;;;1.75;0.88;;;21.30;54.00;;;;;;5100096;28;27395;-61
2021/04/11 14:11:34;;;;;;;2.30;0.70;;;21.30;53.60;;;;;;5103799;28;27453;-61
2021/04/11 14:14:33;;;;;;;1.48;0.82;;;21.20;53.70;;;;;;5102746;28;27363;-59
2021/04/11 14:17:28;;;;;;;0.88;0.47;;;21.20;54.20;;;;;;5104049;28;27468;-59
2021/04/11 14:20:37;;;;;;;1.58;1.08;;;21.10;54.20;;;;;;5100163;28;27404;-59
2021/04/11 14:23:43;;;;;;;4.70;0.70;;;21.10;54.10;;;;;;5107397;28;27397;-59
2021/04/11 14:27:07;;;;;;;2.08;0.60;;;21.10;53.60;;;;;;5107589;28;27385;-61
2021/04/11 14:31:15;;;;;;;1.23;0.80;;;21.00;53.20;;;;;;5103804;28;27361;-61
2021/04/11 14:35:11;;;;;;;2.47;0.90;;;20.80;52.80;;;;;;5103685;28;27389;-61
2021/04/11 14:38:13;;;;;;;2.42;0.90;;;20.70;53.00;;;;;;5107263;28;27497;-61
2021/04/11 14:41:08;;;;;;;3.60;1.05;;;20.60;52.60;;;;;;5106382;28;27827;-61
2021/04/11 14:44:30;;;;;;;2.80;1.10;;;20.50;53.60;;;;;;5107406;28;27344;-61
2021/04/11 14:47:40;;;;;;;1.23;0.82;;;20.40;53.50;;;;;;5106242;28;27325;-62
2021/04/11 14:50:51;;;;;;;1.27;0.60;;;20.30;54.00;;;;;;5106947;28;27453;-62
2021/04/11 14:54:35;;;;;;;1.73;1.00;;;20.20;54.20;;;;;;5105348;28;28026;-61
2021/04/11 14:57:52;;;;;;;0.90;0.75;;;20.00;55.10;;;;;;5106241;28;27397;-62
2021/04/11 15:00:49;;;;;;;1.95;1.10;;;19.90;56.10;;;;;;5106872;28;27387;-62
2021/04/11 15:04:11;;;;;;;2.67;1.88;;;19.80;55.90;;;;;;5106042;28;27496;-61
2021/04/11 15:07:23;;;;;;;1.45;0.85;;;19.70;56.10;;;;;;5106757;28;27382;-62
2021/04/11 15:10:49;;;;;;;1.02;0.68;;;19.50;56.10;;;;;;5106744;28;27461;-62
2021/04/11 15:13:44;;;;;;;1.52;0.90;;;19.40;57.10;;;;;;5105653;28;27426;-61
2021/04/11 15:16:54;;;;;;;2.35;1.05;;;19.30;57.10;;;;;;5106692;28;27386;-61
2021/04/11 15:19:54;;;;;;;2.55;1.10;;;19.20;56.80;;;;;;5091956;28;27393;-62
2021/04/11 15:23:22;;;;;;;2.90;1.10;;;19.00;56.40;;;;;;5106158;28;27514;-63
2021/04/11 15:27:18;;;;;;;3.17;1.02;;;18.90;55.80;;;;;;5102539;28;27450;-61
2021/04/11 15:30:51;;;;;;;1.73;1.42;;;18.80;56.20;;;;;;5106535;28;27442;-61
2021/04/11 15:34:20;;;;;;;3.97;1.42;;;18.60;56.60;;;;;;5104677;28;27402;-62
2021/04/11 15:37:26;;;;;;;3.92;1.33;;;18.50;57.50;;;;;;5106665;28;27416;-61
2021/04/11 15:41:03;;;;;;;3.00;1.20;;;18.30;58.10;;;;;;5106359;28;27411;-61
2021/04/11 15:44:22;;;;;;;4.30;2.08;;;18.20;58.00;;;;;;5106243;28;27640;-62
2021/04/11 15:47:45;;;;;;;3.83;2.28;;;18.10;58.20;;;;;;5106093;28;27478;-61
2021/04/11 15:50:56;;;;;;;4.35;1.95;;;18.00;59.00;;;;;;5106162;28;27552;-62
2021/04/11 15:54:19;;;;;;;3.58;1.73;;;17.80;59.30;;;;;;5106147;28;27469;-61
2021/04/11 15:57:13;;;;;;;5.20;2.28;;;17.80;59.60;;;;;;5106121;28;27369;-61
2021/04/11 16:00:52;;;;;;;6.28;2.22;;;17.70;59.90;;;;;;5102652;28;27422;-60
2021/04/11 16:04:18;;;;;;;3.45;1.55;;;17.70;60.40;;;;;;5105441;28;27694;-59
2021/04/11 16:08:25;;;;;;;2.05;1.63;;;17.60;60.60;;;;;;5116378;27;27421;-59
2021/04/11 16:12:02;;;;;;;4.22;1.88;;;17.60;60.70;;;;;;5104917;28;27336;-59
2021/04/11 16:15:49;;;;;;;3.60;2.13;;;17.50;60.90;;;;;;5102287;28;27402;-59
2021/04/11 16:19:29;;;;;;;4.30;2.25;;;17.50;61.30;;;;;;5103916;28;27621;-59
2021/04/11 16:23:41;;;;;;;4.90;1.95;;;17.40;61.80;;;;;;5103925;28;27411;-59
2021/04/11 16:27:00;;;;;;;2.60;1.67;;;17.30;61.90;;;;;;5104409;27;27463;-61
2021/04/11 16:30:05;;;;;;;5.82;1.95;;;17.30;60.90;;;;;;5105571;28;27350;-59
2021/04/11 16:33:13;;;;;;;1.75;1.35;;;17.20;61.10;;;;;;5101455;28;27336;-59
2021/04/11 16:36:16;;;;;;;3.65;1.52;;;17.20;60.90;;;;;;5101279;28;27442;-59
2021/04/11 16:39:20;;;;;;;2.13;1.52;;;17.20;61.10;;;;;;5100887;28;27474;-59
2021/04/11 16:42:39;;;;;;;2.08;1.30;;;17.20;60.90;;;;;;5105319;28;27998;-58
2021/04/11 16:46:09;;;;;;;1.67;1.13;;;17.10;60.90;;;;;;5103403;28;27511;-59
2021/04/11 16:49:12;;;;;;;2.13;1.10;;;17.10;60.70;;;;;;5105222;28;27670;-59
2021/04/11 16:52:03;;;;;;;1.77;1.17;;;17.10;60.30;;;;;;5104191;28;27465;-60
2021/04/11 16:55:12;;;;;;;3.10;1.30;;;17.00;60.80;;;;;;5104150;28;27419;-59
2021/04/11 16:58:29;;;;;;;1.50;1.00;;;17.00;61.20;;;;;;5104625;28;27631;-59
2021/04/11 17:01:44;;;;;;;1.10;1.00;;;16.80;61.50;;;;;;5104504;28;27351;-59
2021/04/11 17:04:42;;;;;;;1.65;1.33;;;16.80;61.90;;;;;;5101135;28;27461;-62
2021/04/11 17:08:03;;;;;;;1.38;0.90;;;16.70;61.90;;;;;;5104797;28;27409;-59
2021/04/11 17:11:25;;;;;;;2.40;1.45;;;16.70;62.20;;;;;;5103230;28;27516;-59
2021/04/11 17:14:38;;;;;;;2.22;1.23;;;16.60;62.30;;;;;;5103998;28;27426;-59
2021/04/11 17:17:33;;;;;;;1.50;1.13;;;16.60;62.30;;;;;;5104929;28;27365;-59
2021/04/11 17:21:02;;;;;;;0.90;0.75;;;16.50;62.20;;;;;;5103138;28;27576;-60
2021/04/11 17:24:50;;;;;;;1.08;0.77;;;16.50;62.60;;;;;;5103995;28;27505;-60